Lewiston Woodville, North Carolina
Current Conditions -  °F | °C
As of 7:55 AM on Saturday 01 Nov 2014 (Local Time) from KETC Reporting Station
Broken Clouds Broken Clouds  
Wind Chill: 42°   Ceiling: 11000
Heat Index: 42°   Visibility: 10mi
Dew Point: 40°   Wind: 0mph
Humidity: 93%   Direction: NA
Pressure: 29.75"   Gusts: NA
Location:  36.11°N, 77.18°W
Report Text: KETC 011155Z AUTO 00000KT 10SM BKN110 05/04 A2975 RMK AO2 T00540044 10351 20021
Loading
Personal Weather Stations






























Interactive Weather Map
Tropical Storm Tracking
New forecast layout! Learn more

10-Day Weather Forecast

Advertisements
Track Severe Weather on mobile